sensor_id;sensor_type;location;lat;lon;timestamp;pressure;altitude;pressure_sealevel;temperature;humidity
32330;BME280;18807;52.434;13.238;2023-05-10T00:07:25;75922.69;;;-142.05;50.06
32330;BME280;18807;52.434;13.238;2023-05-10T00:14:59;75924.72;;;-142.05;50.06
32330;BME280;18807;52.434;13.238;2023-05-10T00:22:35;75914.53;;;-142.05;50.25
32330;BME280;18807;52.434;13.238;2023-05-10T00:30:09;75914.53;;;-142.05;50.30
32330;BME280;18807;52.434;13.238;2023-05-10T00:37:45;75914.53;;;-142.05;50.46
32330;BME280;18807;52.434;13.238;2023-05-10T00:45:19;75918.59;;;-142.05;50.55
32330;BME280;18807;52.434;13.238;2023-05-10T00:52:55;75924.72;;;-142.05;50.85
32330;BME280;18807;52.434;13.238;2023-05-10T01:00:29;75928.81;;;-142.05;51.10
32330;BME280;18807;52.434;13.238;2023-05-10T01:08:05;75934.94;;;-142.05;51.44
32330;BME280;18807;52.434;13.238;2023-05-10T01:15:39;75932.88;;;-142.05;51.58
32330;BME280;18807;52.434;13.238;2023-05-10T01:23:31;75936.97;;;-142.05;51.33
32330;BME280;18807;52.434;13.238;2023-05-10T01:31:28;75941.06;;;-142.05;51.74
32330;BME280;18807;52.434;13.238;2023-05-10T01:39:11;75955.34;;;-142.05;52.08
32330;BME280;18807;52.434;13.238;2023-05-10T01:47:05;75963.50;;;-142.05;52.18
32330;BME280;18807;52.434;13.238;2023-05-10T01:54:48;75983.91;;;-142.05;52.82
32330;BME280;18807;52.434;13.238;2023-05-10T02:02:45;75996.16;;;-142.05;53.50
32330;BME280;18807;52.434;13.238;2023-05-10T02:10:21;76000.22;;;-142.05;54.47
32330;BME280;18807;52.434;13.238;2023-05-10T02:17:56;76018.59;;;-142.05;54.67
32330;BME280;18807;52.434;13.238;2023-05-10T02:25:34;76024.72;;;-142.05;55.32
32330;BME280;18807;52.434;13.238;2023-05-10T02:33:09;76036.97;;;-142.05;55.61
32330;BME280;18807;52.434;13.238;2023-05-10T02:40:45;76047.19;;;-142.05;56.25
32330;BME280;18807;52.434;13.238;2023-05-10T02:48:20;76053.28;;;-142.05;57.08
32330;BME280;18807;52.434;13.238;2023-05-10T02:55:58;76065.53;;;-142.05;57.08
32330;BME280;18807;52.434;13.238;2023-05-10T03:03:32;76075.75;;;-142.05;57.40
32330;BME280;18807;52.434;13.238;2023-05-10T03:11:18;76094.13;;;-142.05;58.39
32330;BME280;18807;52.434;13.238;2023-05-10T03:19:01;76100.25;;;-142.05;58.66
32330;BME280;18807;52.434;13.238;2023-05-10T03:26:40;76114.53;;;-142.05;59.63
32330;BME280;18807;52.434;13.238;2023-05-10T03:34:14;76118.59;;;-142.05;59.30
32330;BME280;18807;52.434;13.238;2023-05-10T03:41:50;76128.81;;;-142.05;59.99
32330;BME280;18807;52.434;13.238;2023-05-10T03:49:24;76124.72;;;-142.05;60.39
32330;BME280;18807;52.434;13.238;2023-05-10T03:56:59;76126.78;;;-142.05;60.55
32330;BME280;18807;52.434;13.238;2023-05-10T04:04:34;76134.94;;;-142.05;60.37
32330;BME280;18807;52.434;13.238;2023-05-10T04:12:27;76122.69;;;-142.05;59.98
32330;BME280;18807;52.434;13.238;2023-05-10T04:20:18;76124.72;;;-142.05;60.02
32330;BME280;18807;52.434;13.238;2023-05-10T04:27:54;76122.69;;;-142.05;60.08
32330;BME280;18807;52.434;13.238;2023-05-10T04:35:28;76110.44;;;-142.05;59.52
32330;BME280;18807;52.434;13.238;2023-05-10T04:43:03;76090.03;;;-142.05;59.40
32330;BME280;18807;52.434;13.238;2023-05-10T04:50:37;76067.59;;;-142.05;59.36
32330;BME280;18807;52.434;13.238;2023-05-10T04:58:31;76047.19;;;-142.05;58.51
32330;BME280;18807;52.434;13.238;2023-05-10T05:06:06;76022.69;;;-142.05;57.62
32330;BME280;18807;52.434;13.238;2023-05-10T05:13:41;76002.28;;;-142.05;57.48
32330;BME280;18807;52.434;13.238;2023-05-10T05:21:16;75971.66;;;-142.05;56.22
32330;BME280;18807;52.434;13.238;2023-05-10T05:28:52;75936.97;;;-142.05;56.20
32330;BME280;18807;52.434;13.238;2023-05-10T05:36:27;75898.19;;;-142.05;56.08
32330;BME280;18807;52.434;13.238;2023-05-10T05:44:02;75857.38;;;-142.05;54.59
32330;BME280;18807;52.434;13.238;2023-05-10T05:51:36;75820.63;;;-142.05;53.63
32330;BME280;18807;52.434;13.238;2023-05-10T05:59:12;75771.66;;;-142.05;52.47
32330;BME280;18807;52.434;13.238;2023-05-10T06:07:03;75720.66;;;-142.05;52.04
32330;BME280;18807;52.434;13.238;2023-05-10T06:14:38;75692.06;;;-142.05;50.46
32330;BME280;18807;52.434;13.238;2023-05-10T06:22:12;75653.31;;;-142.05;49.76
32330;BME280;18807;52.434;13.238;2023-05-10T06:29:47;75618.59;;;-142.05;48.52
32330;BME280;18807;52.434;13.238;2023-05-10T06:37:27;75588.00;;;-142.05;48.82
32330;BME280;18807;52.434;13.238;2023-05-10T06:45:04;75549.22;;;-142.05;48.25
32330;BME280;18807;52.434;13.238;2023-05-10T06:52:38;75534.94;;;-142.05;48.02
32330;BME280;18807;52.434;13.238;2023-05-10T07:00:15;75502.28;;;-142.05;46.65
32330;BME280;18807;52.434;13.238;2023-05-10T07:07:50;75449.25;;;-142.05;46.16
32330;BME280;18807;52.434;13.238;2023-05-10T07:15:25;75420.66;;;-142.05;45.58
32330;BME280;18807;52.434;13.238;2023-05-10T07:22:59;75379.88;;;-142.05;44.67
32330;BME280;18807;52.434;13.238;2023-05-10T07:30:35;75351.28;;;-142.05;43.87
32330;BME280;18807;52.434;13.238;2023-05-10T07:38:09;75326.81;;;-142.05;43.37
32330;BME280;18807;52.434;13.238;2023-05-10T07:45:45;75298.25;;;-142.05;42.82
32330;BME280;18807;52.434;13.238;2023-05-10T07:53:19;75288.03;;;-142.05;44.08
32330;BME280;18807;52.434;13.238;2023-05-10T08:00:55;75206.41;;;-142.05;42.82
32330;BME280;18807;52.434;13.238;2023-05-10T08:08:29;75175.81;;;-142.05;41.83
32330;BME280;18807;52.434;13.238;2023-05-10T08:16:05;75092.16;;;-142.05;43.08
32330;BME280;18807;52.434;13.238;2023-05-10T08:23:39;75057.47;;;-142.05;41.33
32330;BME280;18807;52.434;13.238;2023-05-10T08:31:15;75002.38;;;-142.05;39.33
32330;BME280;18807;52.434;13.238;2023-05-10T08:38:50;74930.97;;;-142.05;38.08
32330;BME280;18807;52.434;13.238;2023-05-10T08:46:26;74908.53;;;-142.05;37.91
32330;BME280;18807;52.434;13.238;2023-05-10T08:54:01;74900.38;;;-142.05;38.14
32330;BME280;18807;52.434;13.238;2023-05-10T09:01:38;74824.88;;;-142.05;38.26
32330;BME280;18807;52.434;13.238;2023-05-10T09:09:12;74804.47;;;-142.05;36.94
32330;BME280;18807;52.434;13.238;2023-05-10T09:16:48;74824.88;;;-142.05;36.52
32330;BME280;18807;52.434;13.238;2023-05-10T09:24:25;74845.28;;;-142.05;37.16
32330;BME280;18807;52.434;13.238;2023-05-10T09:32:01;74792.25;;;-142.05;38.21
32330;BME280;18807;52.434;13.238;2023-05-10T09:39:54;74710.63;;;-142.05;38.12
32330;BME280;18807;52.434;13.238;2023-05-10T09:47:47;74665.75;;;-142.05;36.30
32330;BME280;18807;52.434;13.238;2023-05-10T09:55:23;74714.72;;;-142.05;36.24
32330;BME280;18807;52.434;13.238;2023-05-10T10:03:00;74653.50;;;-142.05;36.50
32330;BME280;18807;52.434;13.238;2023-05-10T10:10:34;74671.88;;;-142.05;36.48
32330;BME280;18807;52.434;13.238;2023-05-10T10:18:12;74639.22;;;-142.05;36.69
32330;BME280;18807;52.434;13.238;2023-05-10T10:26:04;74655.56;;;-142.05;35.37
32330;BME280;18807;52.434;13.238;2023-05-10T10:33:44;74665.75;;;-142.05;36.05
32330;BME280;18807;52.434;13.238;2023-05-10T10:41:32;74663.72;;;-142.05;36.53
32330;BME280;18807;52.434;13.238;2023-05-10T10:49:10;74661.69;;;-142.05;36.37
32330;BME280;18807;52.434;13.238;2023-05-10T10:57:14;74657.59;;;-142.05;36.08
32330;BME280;18807;52.434;13.238;2023-05-10T11:04:50;74649.44;;;-142.05;36.64
32330;BME280;18807;52.434;13.238;2023-05-10T11:12:24;74651.47;;;-142.05;36.38
32330;BME280;18807;52.434;13.238;2023-05-10T11:20:17;74629.03;;;-142.05;35.81
32330;BME280;18807;52.434;13.238;2023-05-10T11:27:55;74629.03;;;-142.05;35.62
32330;BME280;18807;52.434;13.238;2023-05-10T11:35:36;74604.56;;;-142.05;35.15
32330;BME280;18807;52.434;13.238;2023-05-10T11:43:14;74620.88;;;-142.05;35.18
32330;BME280;18807;52.434;13.238;2023-05-10T11:50:50;74616.78;;;-142.05;34.14
32330;BME280;18807;52.434;13.238;2023-05-10T11:58:25;74596.38;;;-142.05;34.46
32330;BME280;18807;52.434;13.238;2023-05-10T12:06:18;74586.19;;;-142.05;34.71
32330;BME280;18807;52.434;13.238;2023-05-10T12:13:52;74563.75;;;-142.05;34.07
32330;BME280;18807;52.434;13.238;2023-05-10T12:21:29;74557.63;;;-142.05;33.18
32330;BME280;18807;52.434;13.238;2023-05-10T12:29:14;74545.38;;;-142.05;34.03
32330;BME280;18807;52.434;13.238;2023-05-10T12:36:51;74539.28;;;-142.05;33.53
32330;BME280;18807;52.434;13.238;2023-05-10T12:44:25;74541.31;;;-142.05;33.13
32330;BME280;18807;52.434;13.238;2023-05-10T12:52:18;74531.09;;;-142.05;33.24
32330;BME280;18807;52.434;13.238;2023-05-10T12:59:53;74518.88;;;-142.05;33.16
32330;BME280;18807;52.434;13.238;2023-05-10T13:07:28;74488.28;;;-142.05;32.87
32330;BME280;18807;52.434;13.238;2023-05-10T13:15:03;74469.91;;;-142.05;32.21
32330;BME280;18807;52.434;13.238;2023-05-10T13:22:38;74451.56;;;-142.05;32.19
32330;BME280;18807;52.434;13.238;2023-05-10T13:30:12;74449.50;;;-142.05;31.72
32330;BME280;18807;52.434;13.238;2023-05-10T13:37:49;74435.22;;;-142.05;32.60
32330;BME280;18807;52.434;13.238;2023-05-10T13:45:24;74469.91;;;-142.05;32.62
32330;BME280;18807;52.434;13.238;2023-05-10T13:52:59;74435.22;;;-142.05;32.47
32330;BME280;18807;52.434;13.238;2023-05-10T14:00:33;74427.06;;;-142.05;31.68
32330;BME280;18807;52.434;13.238;2023-05-10T14:08:08;74416.88;;;-142.05;32.57
32330;BME280;18807;52.434;13.238;2023-05-10T14:15:43;74427.06;;;-142.05;32.83
32330;BME280;18807;52.434;13.238;2023-05-10T14:23:19;74414.84;;;-142.05;31.95
32330;BME280;18807;52.434;13.238;2023-05-10T14:31:13;74435.22;;;-142.05;31.38
32330;BME280;18807;52.434;13.238;2023-05-10T14:38:50;74431.16;;;-142.05;31.97
32330;BME280;18807;52.434;13.238;2023-05-10T14:46:25;74418.91;;;-142.05;31.62
32330;BME280;18807;52.434;13.238;2023-05-10T14:54:00;74435.22;;;-142.05;31.90
32330;BME280;18807;52.434;13.238;2023-05-10T15:01:35;74463.78;;;-142.05;31.54
32330;BME280;18807;52.434;13.238;2023-05-10T15:09:12;74449.50;;;-142.05;32.22
32330;BME280;18807;52.434;13.238;2023-05-10T15:16:46;74437.28;;;-142.05;32.89
32330;BME280;18807;52.434;13.238;2023-05-10T15:24:22;74439.31;;;-142.05;32.73
32330;BME280;18807;52.434;13.238;2023-05-10T15:31:56;74439.31;;;-142.05;32.58
32330;BME280;18807;52.434;13.238;2023-05-10T15:39:31;74461.75;;;-142.05;32.45
32330;BME280;18807;52.434;13.238;2023-05-10T15:47:05;74447.47;;;-142.05;33.30
32330;BME280;18807;52.434;13.238;2023-05-10T15:54:41;74425.03;;;-142.05;35.83
32330;BME280;18807;52.434;13.238;2023-05-10T16:02:15;74449.50;;;-142.05;41.22
32330;BME280;18807;52.434;13.238;2023-05-10T16:09:52;74527.03;;;-142.05;43.90
32330;BME280;18807;52.434;13.238;2023-05-10T16:17:26;74600.47;;;-142.05;45.94
32330;BME280;18807;52.434;13.238;2023-05-10T16:25:02;74610.66;;;-142.05;47.30
32330;BME280;18807;52.434;13.238;2023-05-10T16:32:37;74624.94;;;-142.05;47.90
32330;BME280;18807;52.434;13.238;2023-05-10T16:40:13;74661.69;;;-142.05;49.00
32330;BME280;18807;52.434;13.238;2023-05-10T16:47:47;74690.22;;;-142.05;49.32
32330;BME280;18807;52.434;13.238;2023-05-10T16:55:22;74731.03;;;-142.05;50.12
32330;BME280;18807;52.434;13.238;2023-05-10T17:02:58;74741.25;;;-142.05;51.20
32330;BME280;18807;52.434;13.238;2023-05-10T17:10:33;74798.38;;;-142.05;52.36
32330;BME280;18807;52.434;13.238;2023-05-10T17:18:08;74831.00;;;-142.05;53.62
32330;BME280;18807;52.434;13.238;2023-05-10T17:25:44;74849.38;;;-142.05;53.46
32330;BME280;18807;52.434;13.238;2023-05-10T17:33:18;74869.78;;;-142.05;54.09
32330;BME280;18807;52.434;13.238;2023-05-10T17:40:53;74902.41;;;-142.05;54.73
32330;BME280;18807;52.434;13.238;2023-05-10T17:48:27;74930.97;;;-142.05;56.03
32330;BME280;18807;52.434;13.238;2023-05-10T17:56:03;74963.63;;;-142.05;57.12
32330;BME280;18807;52.434;13.238;2023-05-10T18:03:37;74986.06;;;-142.05;57.73
32330;BME280;18807;52.434;13.238;2023-05-10T18:11:13;74998.31;;;-142.05;58.36
32330;BME280;18807;52.434;13.238;2023-05-10T18:18:47;75018.72;;;-142.05;59.28
32330;BME280;18807;52.434;13.238;2023-05-10T18:26:23;75035.03;;;-142.05;59.24
32330;BME280;18807;52.434;13.238;2023-05-10T18:33:57;75057.47;;;-142.05;60.00
32330;BME280;18807;52.434;13.238;2023-05-10T18:41:32;75077.88;;;-142.05;60.40
32330;BME280;18807;52.434;13.238;2023-05-10T18:49:06;75098.28;;;-142.05;61.05
32330;BME280;18807;52.434;13.238;2023-05-10T18:56:42;75114.59;;;-142.05;61.56
32330;BME280;18807;52.434;13.238;2023-05-10T19:04:16;75139.09;;;-142.05;62.55
32330;BME280;18807;52.434;13.238;2023-05-10T19:11:55;75167.66;;;-142.05;63.94
32330;BME280;18807;52.434;13.238;2023-05-10T19:19:46;75190.09;;;-142.05;65.19
32330;BME280;18807;52.434;13.238;2023-05-10T19:27:22;75214.59;;;-142.05;66.36
32330;BME280;18807;52.434;13.238;2023-05-10T19:35:14;75228.88;;;-142.05;67.03
32330;BME280;18807;52.434;13.238;2023-05-10T19:42:49;75247.22;;;-142.05;67.67
32330;BME280;18807;52.434;13.238;2023-05-10T19:50:24;75261.50;;;-142.05;68.29
32330;BME280;18807;52.434;13.238;2023-05-10T19:58:00;75281.91;;;-142.05;69.17
32330;BME280;18807;52.434;13.238;2023-05-10T20:05:34;75300.28;;;-142.05;70.06
32330;BME280;18807;52.434;13.238;2023-05-10T20:13:09;75324.78;;;-142.05;70.61
32330;BME280;18807;52.434;13.238;2023-05-10T20:20:44;75341.09;;;-142.05;71.38
32330;BME280;18807;52.434;13.238;2023-05-10T20:28:22;75353.34;;;-142.05;72.41
32330;BME280;18807;52.434;13.238;2023-05-10T20:35:56;75383.94;;;-142.05;75.08
32330;BME280;18807;52.434;13.238;2023-05-10T20:43:32;75388.03;;;-142.05;74.59
32330;BME280;18807;52.434;13.238;2023-05-10T20:51:06;75400.25;;;-142.05;75.71
32330;BME280;18807;52.434;13.238;2023-05-10T20:58:41;75408.44;;;-142.05;75.96
32330;BME280;18807;52.434;13.238;2023-05-10T21:06:15;75408.44;;;-142.05;75.94
32330;BME280;18807;52.434;13.238;2023-05-10T21:13:51;75416.59;;;-142.05;76.17
32330;BME280;18807;52.434;13.238;2023-05-10T21:21:25;75420.66;;;-142.05;76.54
32330;BME280;18807;52.434;13.238;2023-05-10T21:29:17;75424.75;;;-142.05;76.45
32330;BME280;18807;52.434;13.238;2023-05-10T21:36:53;75424.75;;;-142.05;75.87
32330;BME280;18807;52.434;13.238;2023-05-10T21:44:28;75434.97;;;-142.05;76.91
32330;BME280;18807;52.434;13.238;2023-05-10T21:52:03;75441.06;;;-142.05;78.35
32330;BME280;18807;52.434;13.238;2023-05-10T21:59:39;75451.28;;;-142.05;79.67
32330;BME280;18807;52.434;13.238;2023-05-10T22:07:13;75459.44;;;-142.05;80.49
32330;BME280;18807;52.434;13.238;2023-05-10T22:14:49;75471.69;;;-142.05;81.78
32330;BME280;18807;52.434;13.238;2023-05-10T22:22:41;75469.66;;;-142.05;81.38
32330;BME280;18807;52.434;13.238;2023-05-10T22:30:16;75483.94;;;-142.05;82.91
32330;BME280;18807;52.434;13.238;2023-05-10T22:37:51;75490.06;;;-142.05;83.27
32330;BME280;18807;52.434;13.238;2023-05-10T22:45:27;75498.22;;;-142.05;84.13
32330;BME280;18807;52.434;13.238;2023-05-10T22:53:01;75508.41;;;-142.05;85.35
32330;BME280;18807;52.434;13.238;2023-05-10T23:00:36;75520.66;;;-142.05;86.01
32330;BME280;18807;52.434;13.238;2023-05-10T23:08:10;75543.09;;;-142.05;87.09
32330;BME280;18807;52.434;13.238;2023-05-10T23:15:46;75563.50;;;-142.05;87.47
32330;BME280;18807;52.434;13.238;2023-05-10T23:23:20;75585.97;;;-142.05;87.32
32330;BME280;18807;52.434;13.238;2023-05-10T23:30:56;75602.28;;;-142.05;88.45
32330;BME280;18807;52.434;13.238;2023-05-10T23:38:30;75622.69;;;-142.05;89.36
32330;BME280;18807;52.434;13.238;2023-05-10T23:46:06;75643.09;;;-142.05;90.14
32330;BME280;18807;52.434;13.238;2023-05-10T23:53:40;75653.31;;;-142.05;92.96
